sensor_id;sensor_type;location;lat;lon;timestamp;P1;durP1;ratioP1;P2;durP2;ratioP2
1887;SDS011;944;51.574;6.980;2023-07-09T00:00:18;8.20;;;4.30;;
1887;SDS011;944;51.574;6.980;2023-07-09T00:02:45;6.30;;;4.03;;
1887;SDS011;944;51.574;6.980;2023-07-09T00:05:13;7.10;;;4.67;;
1887;SDS011;944;51.574;6.980;2023-07-09T00:07:44;12.63;;;4.70;;
1887;SDS011;944;51.574;6.980;2023-07-09T00:10:15;9.90;;;4.50;;
1887;SDS011;944;51.574;6.980;2023-07-09T00:12:44;7.77;;;5.10;;
1887;SDS011;944;51.574;6.980;2023-07-09T00:15:12;6.83;;;4.27;;
1887;SDS011;944;51.574;6.980;2023-07-09T00:17:43;10.53;;;5.57;;
1887;SDS011;944;51.574;6.980;2023-07-09T00:20:11;10.53;;;4.80;;
1887;SDS011;944;51.574;6.980;2023-07-09T00:22:46;14.60;;;5.47;;
1887;SDS011;944;51.574;6.980;2023-07-09T00:25:17;11.00;;;5.00;;
1887;SDS011;944;51.574;6.980;2023-07-09T00:27:45;8.93;;;5.13;;
1887;SDS011;944;51.574;6.980;2023-07-09T00:30:15;9.73;;;5.30;;
1887;SDS011;944;51.574;6.980;2023-07-09T00:32:44;9.57;;;5.33;;
1887;SDS011;944;51.574;6.980;2023-07-09T00:35:11;11.53;;;5.87;;
1887;SDS011;944;51.574;6.980;2023-07-09T00:37:40;16.93;;;5.63;;
1887;SDS011;944;51.574;6.980;2023-07-09T00:40:25;9.50;;;5.33;;
1887;SDS011;944;51.574;6.980;2023-07-09T00:43:00;10.70;;;5.30;;
1887;SDS011;944;51.574;6.980;2023-07-09T00:45:27;18.00;;;5.50;;
1887;SDS011;944;51.574;6.980;2023-07-09T00:48:09;8.27;;;5.27;;
1887;SDS011;944;51.574;6.980;2023-07-09T00:50:42;6.90;;;4.77;;
1887;SDS011;944;51.574;6.980;2023-07-09T00:53:20;9.03;;;5.10;;
1887;SDS011;944;51.574;6.980;2023-07-09T00:56:04;9.50;;;5.40;;
1887;SDS011;944;51.574;6.980;2023-07-09T00:58:57;12.30;;;4.97;;
1887;SDS011;944;51.574;6.980;2023-07-09T01:01:40;6.70;;;4.90;;
1887;SDS011;944;51.574;6.980;2023-07-09T01:04:15;8.27;;;4.83;;
1887;SDS011;944;51.574;6.980;2023-07-09T01:06:47;11.20;;;5.63;;
1887;SDS011;944;51.574;6.980;2023-07-09T01:09:27;6.83;;;4.90;;
1887;SDS011;944;51.574;6.980;2023-07-09T01:11:56;7.57;;;4.73;;
1887;SDS011;944;51.574;6.980;2023-07-09T01:14:28;8.33;;;5.07;;
1887;SDS011;944;51.574;6.980;2023-07-09T01:17:09;10.27;;;4.80;;
1887;SDS011;944;51.574;6.980;2023-07-09T01:19:37;9.60;;;5.43;;
1887;SDS011;944;51.574;6.980;2023-07-09T01:22:11;8.60;;;5.30;;
1887;SDS011;944;51.574;6.980;2023-07-09T01:24:55;8.40;;;5.17;;
1887;SDS011;944;51.574;6.980;2023-07-09T01:27:28;10.13;;;5.60;;
1887;SDS011;944;51.574;6.980;2023-07-09T01:33:39;8.03;;;4.70;;
1887;SDS011;944;51.574;6.980;2023-07-09T01:36:17;7.77;;;5.50;;
1887;SDS011;944;51.574;6.980;2023-07-09T01:38:59;8.63;;;5.60;;
1887;SDS011;944;51.574;6.980;2023-07-09T01:41:34;9.63;;;5.80;;
1887;SDS011;944;51.574;6.980;2023-07-09T01:44:04;8.87;;;5.60;;
1887;SDS011;944;51.574;6.980;2023-07-09T01:46:38;8.10;;;5.67;;
1887;SDS011;944;51.574;6.980;2023-07-09T01:49:07;8.77;;;5.60;;
1887;SDS011;944;51.574;6.980;2023-07-09T01:51:34;11.03;;;5.70;;
1887;SDS011;944;51.574;6.980;2023-07-09T01:54:04;9.93;;;5.77;;
1887;SDS011;944;51.574;6.980;2023-07-09T01:56:34;10.43;;;6.00;;
1887;SDS011;944;51.574;6.980;2023-07-09T01:59:03;8.53;;;5.60;;
1887;SDS011;944;51.574;6.980;2023-07-09T02:01:36;8.50;;;5.47;;
1887;SDS011;944;51.574;6.980;2023-07-09T02:04:04;9.33;;;6.00;;
1887;SDS011;944;51.574;6.980;2023-07-09T02:06:35;10.60;;;5.97;;
1887;SDS011;944;51.574;6.980;2023-07-09T02:09:06;8.40;;;5.70;;
1887;SDS011;944;51.574;6.980;2023-07-09T02:11:33;12.67;;;5.60;;
1887;SDS011;944;51.574;6.980;2023-07-09T02:14:02;9.80;;;5.37;;
1887;SDS011;944;51.574;6.980;2023-07-09T02:16:32;8.53;;;5.73;;
1887;SDS011;944;51.574;6.980;2023-07-09T02:19:02;11.30;;;5.73;;
1887;SDS011;944;51.574;6.980;2023-07-09T02:21:29;10.57;;;6.50;;
1887;SDS011;944;51.574;6.980;2023-07-09T02:23:56;7.97;;;5.23;;
1887;SDS011;944;51.574;6.980;2023-07-09T02:26:24;9.93;;;5.70;;
1887;SDS011;944;51.574;6.980;2023-07-09T02:28:51;10.37;;;5.27;;
1887;SDS011;944;51.574;6.980;2023-07-09T02:31:21;7.63;;;5.53;;
1887;SDS011;944;51.574;6.980;2023-07-09T02:33:55;8.50;;;6.37;;
1887;SDS011;944;51.574;6.980;2023-07-09T02:36:29;10.77;;;5.70;;
1887;SDS011;944;51.574;6.980;2023-07-09T02:39:01;11.23;;;6.53;;
1887;SDS011;944;51.574;6.980;2023-07-09T02:41:29;8.83;;;5.63;;
1887;SDS011;944;51.574;6.980;2023-07-09T02:43:56;8.57;;;6.20;;
1887;SDS011;944;51.574;6.980;2023-07-09T02:46:23;9.93;;;5.60;;
1887;SDS011;944;51.574;6.980;2023-07-09T02:48:52;9.87;;;6.00;;
1887;SDS011;944;51.574;6.980;2023-07-09T02:51:19;15.63;;;6.20;;
1887;SDS011;944;51.574;6.980;2023-07-09T02:53:49;9.53;;;6.77;;
1887;SDS011;944;51.574;6.980;2023-07-09T02:56:16;11.07;;;6.07;;
1887;SDS011;944;51.574;6.980;2023-07-09T02:58:47;9.93;;;7.50;;
1887;SDS011;944;51.574;6.980;2023-07-09T03:01:18;16.70;;;8.37;;
1887;SDS011;944;51.574;6.980;2023-07-09T03:03:49;11.23;;;7.73;;
1887;SDS011;944;51.574;6.980;2023-07-09T03:06:27;11.33;;;7.53;;
1887;SDS011;944;51.574;6.980;2023-07-09T03:08:54;14.57;;;8.20;;
1887;SDS011;944;51.574;6.980;2023-07-09T03:11:24;11.93;;;8.33;;
1887;SDS011;944;51.574;6.980;2023-07-09T03:13:55;13.20;;;8.17;;
1887;SDS011;944;51.574;6.980;2023-07-09T03:16:25;14.63;;;8.40;;
1887;SDS011;944;51.574;6.980;2023-07-09T03:19:03;17.10;;;9.13;;
1887;SDS011;944;51.574;6.980;2023-07-09T03:21:37;13.20;;;8.20;;
1887;SDS011;944;51.574;6.980;2023-07-09T03:24:10;14.47;;;9.33;;
1887;SDS011;944;51.574;6.980;2023-07-09T03:26:45;19.37;;;8.53;;
1887;SDS011;944;51.574;6.980;2023-07-09T03:29:15;13.23;;;8.30;;
1887;SDS011;944;51.574;6.980;2023-07-09T03:31:43;15.00;;;8.77;;
1887;SDS011;944;51.574;6.980;2023-07-09T03:34:10;13.53;;;9.00;;
1887;SDS011;944;51.574;6.980;2023-07-09T03:36:37;14.70;;;8.80;;
1887;SDS011;944;51.574;6.980;2023-07-09T03:39:06;13.10;;;9.13;;
1887;SDS011;944;51.574;6.980;2023-07-09T03:41:42;15.07;;;8.77;;
1887;SDS011;944;51.574;6.980;2023-07-09T03:44:12;12.80;;;8.47;;
1887;SDS011;944;51.574;6.980;2023-07-09T03:46:43;13.57;;;8.67;;
1887;SDS011;944;51.574;6.980;2023-07-09T03:49:10;14.70;;;8.33;;
1887;SDS011;944;51.574;6.980;2023-07-09T03:51:41;14.03;;;8.50;;
1887;SDS011;944;51.574;6.980;2023-07-09T03:54:09;14.50;;;7.83;;
1887;SDS011;944;51.574;6.980;2023-07-09T03:56:37;11.60;;;7.20;;
1887;SDS011;944;51.574;6.980;2023-07-09T03:59:04;13.40;;;7.50;;
1887;SDS011;944;51.574;6.980;2023-07-09T04:01:31;13.70;;;6.83;;
1887;SDS011;944;51.574;6.980;2023-07-09T04:04:00;10.10;;;6.80;;
1887;SDS011;944;51.574;6.980;2023-07-09T04:06:27;11.70;;;6.43;;
1887;SDS011;944;51.574;6.980;2023-07-09T04:08:54;12.20;;;6.40;;
1887;SDS011;944;51.574;6.980;2023-07-09T04:11:21;14.27;;;7.40;;
1887;SDS011;944;51.574;6.980;2023-07-09T04:13:48;10.33;;;6.70;;
1887;SDS011;944;51.574;6.980;2023-07-09T04:16:15;11.70;;;6.80;;
1887;SDS011;944;51.574;6.980;2023-07-09T04:18:42;12.60;;;7.37;;
1887;SDS011;944;51.574;6.980;2023-07-09T04:21:10;10.33;;;6.90;;
1887;SDS011;944;51.574;6.980;2023-07-09T04:23:37;11.30;;;7.40;;
1887;SDS011;944;51.574;6.980;2023-07-09T04:26:04;12.77;;;7.00;;
1887;SDS011;944;51.574;6.980;2023-07-09T04:28:34;11.00;;;7.00;;
1887;SDS011;944;51.574;6.980;2023-07-09T04:31:01;12.03;;;7.37;;
1887;SDS011;944;51.574;6.980;2023-07-09T04:33:28;12.33;;;7.17;;
1887;SDS011;944;51.574;6.980;2023-07-09T04:35:55;11.00;;;6.77;;
1887;SDS011;944;51.574;6.980;2023-07-09T04:38:24;11.63;;;7.00;;
1887;SDS011;944;51.574;6.980;2023-07-09T04:40:51;10.97;;;7.20;;
1887;SDS011;944;51.574;6.980;2023-07-09T04:43:21;13.60;;;7.07;;
1887;SDS011;944;51.574;6.980;2023-07-09T04:45:48;9.77;;;6.40;;
1887;SDS011;944;51.574;6.980;2023-07-09T04:48:15;14.53;;;6.13;;
1887;SDS011;944;51.574;6.980;2023-07-09T04:50:42;10.67;;;5.80;;
1887;SDS011;944;51.574;6.980;2023-07-09T04:53:09;15.90;;;7.20;;
1887;SDS011;944;51.574;6.980;2023-07-09T04:55:38;11.73;;;6.30;;
1887;SDS011;944;51.574;6.980;2023-07-09T04:58:05;9.07;;;6.03;;
1887;SDS011;944;51.574;6.980;2023-07-09T05:00:32;9.43;;;6.23;;
1887;SDS011;944;51.574;6.980;2023-07-09T05:02:59;10.30;;;6.23;;
1887;SDS011;944;51.574;6.980;2023-07-09T05:05:26;10.33;;;6.70;;
1887;SDS011;944;51.574;6.980;2023-07-09T05:07:52;9.57;;;6.17;;
1887;SDS011;944;51.574;6.980;2023-07-09T05:10:19;13.00;;;6.57;;
1887;SDS011;944;51.574;6.980;2023-07-09T05:12:49;10.93;;;5.90;;
1887;SDS011;944;51.574;6.980;2023-07-09T05:15:16;17.23;;;6.73;;
1887;SDS011;944;51.574;6.980;2023-07-09T05:21:25;10.50;;;5.83;;
1887;SDS011;944;51.574;6.980;2023-07-09T05:23:52;11.97;;;7.63;;
1887;SDS011;944;51.574;6.980;2023-07-09T05:26:19;11.23;;;7.40;;
1887;SDS011;944;51.574;6.980;2023-07-09T05:28:47;10.10;;;6.80;;
1887;SDS011;944;51.574;6.980;2023-07-09T05:31:14;12.00;;;6.93;;
1887;SDS011;944;51.574;6.980;2023-07-09T05:33:40;11.43;;;6.90;;
1887;SDS011;944;51.574;6.980;2023-07-09T05:36:08;12.40;;;6.53;;
1887;SDS011;944;51.574;6.980;2023-07-09T05:38:38;12.40;;;6.93;;
1887;SDS011;944;51.574;6.980;2023-07-09T05:41:05;9.33;;;6.67;;
1887;SDS011;944;51.574;6.980;2023-07-09T05:43:32;11.17;;;6.60;;
1887;SDS011;944;51.574;6.980;2023-07-09T05:46:02;7.83;;;6.43;;
1887;SDS011;944;51.574;6.980;2023-07-09T05:48:31;9.33;;;6.20;;
1887;SDS011;944;51.574;6.980;2023-07-09T05:50:58;9.73;;;6.40;;
1887;SDS011;944;51.574;6.980;2023-07-09T05:53:25;7.80;;;6.17;;
1887;SDS011;944;51.574;6.980;2023-07-09T05:55:52;10.10;;;6.90;;
1887;SDS011;944;51.574;6.980;2023-07-09T05:58:20;10.93;;;6.53;;
1887;SDS011;944;51.574;6.980;2023-07-09T06:00:49;12.70;;;7.30;;
1887;SDS011;944;51.574;6.980;2023-07-09T06:03:20;8.37;;;6.37;;
1887;SDS011;944;51.574;6.980;2023-07-09T06:05:48;9.23;;;6.60;;
1887;SDS011;944;51.574;6.980;2023-07-09T06:08:16;8.80;;;5.87;;
1887;SDS011;944;51.574;6.980;2023-07-09T06:10:50;9.30;;;6.20;;
1887;SDS011;944;51.574;6.980;2023-07-09T06:13:21;7.73;;;5.77;;
1887;SDS011;944;51.574;6.980;2023-07-09T06:15:48;10.43;;;7.07;;
1887;SDS011;944;51.574;6.980;2023-07-09T06:18:16;10.10;;;6.13;;
1887;SDS011;944;51.574;6.980;2023-07-09T06:20:47;11.40;;;6.30;;
1887;SDS011;944;51.574;6.980;2023-07-09T06:23:15;9.53;;;5.83;;
1887;SDS011;944;51.574;6.980;2023-07-09T06:25:42;9.70;;;5.93;;
1887;SDS011;944;51.574;6.980;2023-07-09T06:28:12;7.90;;;5.50;;
1887;SDS011;944;51.574;6.980;2023-07-09T06:30:40;10.43;;;6.30;;
1887;SDS011;944;51.574;6.980;2023-07-09T06:33:07;9.37;;;6.30;;
1887;SDS011;944;51.574;6.980;2023-07-09T06:35:34;9.47;;;5.87;;
1887;SDS011;944;51.574;6.980;2023-07-09T06:38:02;9.00;;;5.77;;
1887;SDS011;944;51.574;6.980;2023-07-09T06:40:29;10.67;;;5.60;;
1887;SDS011;944;51.574;6.980;2023-07-09T06:42:56;10.13;;;5.93;;
1887;SDS011;944;51.574;6.980;2023-07-09T06:45:23;9.07;;;5.70;;
1887;SDS011;944;51.574;6.980;2023-07-09T06:47:50;9.20;;;6.50;;
1887;SDS011;944;51.574;6.980;2023-07-09T06:50:17;9.13;;;6.47;;
1887;SDS011;944;51.574;6.980;2023-07-09T06:52:44;11.10;;;5.67;;
1887;SDS011;944;51.574;6.980;2023-07-09T06:55:13;12.30;;;7.00;;
1887;SDS011;944;51.574;6.980;2023-07-09T06:57:40;9.47;;;5.90;;
1887;SDS011;944;51.574;6.980;2023-07-09T07:00:07;16.27;;;6.10;;
1887;SDS011;944;51.574;6.980;2023-07-09T07:02:35;11.23;;;6.60;;
1887;SDS011;944;51.574;6.980;2023-07-09T07:05:02;9.87;;;6.10;;
1887;SDS011;944;51.574;6.980;2023-07-09T07:07:30;13.57;;;6.37;;
1887;SDS011;944;51.574;6.980;2023-07-09T07:09:57;8.88;;;5.53;;
1887;SDS011;944;51.574;6.980;2023-07-09T07:12:26;16.83;;;5.90;;
1887;SDS011;944;51.574;6.980;2023-07-09T07:14:55;7.95;;;5.80;;
1887;SDS011;944;51.574;6.980;2023-07-09T07:17:22;8.32;;;5.90;;
1887;SDS011;944;51.574;6.980;2023-07-09T07:19:49;7.40;;;5.63;;
1887;SDS011;944;51.574;6.980;2023-07-09T07:22:16;10.25;;;6.20;;
1887;SDS011;944;51.574;6.980;2023-07-09T07:24:43;8.30;;;5.82;;
1887;SDS011;944;51.574;6.980;2023-07-09T07:27:10;8.98;;;5.80;;
1887;SDS011;944;51.574;6.980;2023-07-09T07:29:38;10.25;;;5.63;;
1887;SDS011;944;51.574;6.980;2023-07-09T07:32:07;11.80;;;6.32;;
1887;SDS011;944;51.574;6.980;2023-07-09T07:34:34;9.40;;;6.05;;
1887;SDS011;944;51.574;6.980;2023-07-09T07:37:01;9.82;;;6.50;;
1887;SDS011;944;51.574;6.980;2023-07-09T07:39:29;9.65;;;6.70;;
1887;SDS011;944;51.574;6.980;2023-07-09T07:41:56;11.00;;;6.03;;
1887;SDS011;944;51.574;6.980;2023-07-09T07:44:23;12.43;;;8.13;;
1887;SDS011;944;51.574;6.980;2023-07-09T07:46:51;11.38;;;6.72;;
1887;SDS011;944;51.574;6.980;2023-07-09T07:49:18;15.95;;;6.15;;
1887;SDS011;944;51.574;6.980;2023-07-09T07:51:45;9.32;;;6.43;;
1887;SDS011;944;51.574;6.980;2023-07-09T07:54:13;10.95;;;6.35;;
1887;SDS011;944;51.574;6.980;2023-07-09T07:56:43;11.32;;;5.72;;
1887;SDS011;944;51.574;6.980;2023-07-09T07:59:10;14.27;;;6.70;;
1887;SDS011;944;51.574;6.980;2023-07-09T08:01:37;7.75;;;5.50;;
1887;SDS011;944;51.574;6.980;2023-07-09T08:04:05;9.30;;;5.40;;
1887;SDS011;944;51.574;6.980;2023-07-09T08:06:32;13.85;;;6.22;;
1887;SDS011;944;51.574;6.980;2023-07-09T08:08:59;10.10;;;6.63;;
1887;SDS011;944;51.574;6.980;2023-07-09T08:11:26;9.13;;;5.65;;
1887;SDS011;944;51.574;6.980;2023-07-09T08:13:54;12.32;;;6.00;;
1887;SDS011;944;51.574;6.980;2023-07-09T08:16:23;10.60;;;6.43;;
1887;SDS011;944;51.574;6.980;2023-07-09T08:18:49;7.82;;;5.55;;
1887;SDS011;944;51.574;6.980;2023-07-09T08:21:18;12.48;;;6.90;;
1887;SDS011;944;51.574;6.980;2023-07-09T08:23:45;9.43;;;6.20;;
1887;SDS011;944;51.574;6.980;2023-07-09T08:26:12;12.57;;;6.32;;
1887;SDS011;944;51.574;6.980;2023-07-09T08:28:39;15.98;;;6.30;;
1887;SDS011;944;51.574;6.980;2023-07-09T08:31:06;7.68;;;6.28;;
1887;SDS011;944;51.574;6.980;2023-07-09T08:33:34;12.90;;;6.47;;
1887;SDS011;944;51.574;6.980;2023-07-09T08:36:01;9.82;;;5.65;;
1887;SDS011;944;51.574;6.980;2023-07-09T08:38:30;9.80;;;5.70;;
1887;SDS011;944;51.574;6.980;2023-07-09T08:40:58;10.25;;;5.93;;
1887;SDS011;944;51.574;6.980;2023-07-09T08:43:36;13.68;;;5.95;;
1887;SDS011;944;51.574;6.980;2023-07-09T08:46:16;12.25;;;5.90;;
1887;SDS011;944;51.574;6.980;2023-07-09T08:48:53;16.05;;;5.85;;
1887;SDS011;944;51.574;6.980;2023-07-09T08:51:25;8.15;;;5.93;;
1887;SDS011;944;51.574;6.980;2023-07-09T08:53:58;12.13;;;6.15;;
1887;SDS011;944;51.574;6.980;2023-07-09T08:56:26;12.95;;;6.18;;
1887;SDS011;944;51.574;6.980;2023-07-09T08:58:58;11.75;;;6.07;;
1887;SDS011;944;51.574;6.980;2023-07-09T09:01:29;15.98;;;6.43;;
1887;SDS011;944;51.574;6.980;2023-07-09T09:04:02;11.07;;;6.30;;
1887;SDS011;944;51.574;6.980;2023-07-09T09:06:31;9.20;;;5.70;;
1887;SDS011;944;51.574;6.980;2023-07-09T09:09:03;10.45;;;6.15;;
1887;SDS011;944;51.574;6.980;2023-07-09T09:11:42;14.65;;;5.70;;
1887;SDS011;944;51.574;6.980;2023-07-09T09:14:24;10.48;;;5.25;;
1887;SDS011;944;51.574;6.980;2023-07-09T09:16:56;13.48;;;5.38;;
1887;SDS011;944;51.574;6.980;2023-07-09T09:19:26;9.93;;;5.38;;
1887;SDS011;944;51.574;6.980;2023-07-09T09:22:02;15.07;;;6.38;;
1887;SDS011;944;51.574;6.980;2023-07-09T09:24:36;9.18;;;5.82;;
1887;SDS011;944;51.574;6.980;2023-07-09T09:27:07;9.95;;;5.53;;
1887;SDS011;944;51.574;6.980;2023-07-09T09:29:34;14.48;;;6.47;;
1887;SDS011;944;51.574;6.980;2023-07-09T09:32:12;7.80;;;5.55;;
1887;SDS011;944;51.574;6.980;2023-07-09T09:34:48;9.75;;;5.55;;
1887;SDS011;944;51.574;6.980;2023-07-09T09:39:55;10.65;;;5.22;;
1887;SDS011;944;51.574;6.980;2023-07-09T09:46:06;6.93;;;4.72;;
1887;SDS011;944;51.574;6.980;2023-07-09T09:48:34;5.18;;;4.60;;
1887;SDS011;944;51.574;6.980;2023-07-09T09:51:04;12.57;;;5.05;;
1887;SDS011;944;51.574;6.980;2023-07-09T09:53:34;8.68;;;4.88;;
1887;SDS011;944;51.574;6.980;2023-07-09T09:56:27;7.15;;;5.18;;
1887;SDS011;944;51.574;6.980;2023-07-09T09:59:04;7.50;;;5.20;;
1887;SDS011;944;51.574;6.980;2023-07-09T10:01:32;11.10;;;5.43;;
1887;SDS011;944;51.574;6.980;2023-07-09T10:07:43;11.82;;;5.13;;
1887;SDS011;944;51.574;6.980;2023-07-09T10:10:24;8.75;;;5.28;;
1887;SDS011;944;51.574;6.980;2023-07-09T10:12:58;9.05;;;5.28;;
1887;SDS011;944;51.574;6.980;2023-07-09T10:15:33;6.95;;;5.30;;
1887;SDS011;944;51.574;6.980;2023-07-09T10:18:10;7.65;;;4.80;;
1887;SDS011;944;51.574;6.980;2023-07-09T10:20:56;10.00;;;4.90;;
1887;SDS011;944;51.574;6.980;2023-07-09T10:23:34;13.50;;;5.18;;
1887;SDS011;944;51.574;6.980;2023-07-09T10:26:08;10.40;;;5.15;;
1887;SDS011;944;51.574;6.980;2023-07-09T10:28:56;12.63;;;5.18;;
1887;SDS011;944;51.574;6.980;2023-07-09T10:31:41;7.13;;;4.57;;
1887;SDS011;944;51.574;6.980;2023-07-09T10:34:17;7.40;;;4.93;;
1887;SDS011;944;51.574;6.980;2023-07-09T10:37:07;9.38;;;5.10;;
1887;SDS011;944;51.574;6.980;2023-07-09T10:39:59;9.45;;;5.32;;
1887;SDS011;944;51.574;6.980;2023-07-09T10:42:32;12.57;;;5.78;;
1887;SDS011;944;51.574;6.980;2023-07-09T10:45:10;7.28;;;4.63;;
1887;SDS011;944;51.574;6.980;2023-07-09T10:47:41;8.27;;;4.70;;
1887;SDS011;944;51.574;6.980;2023-07-09T10:50:12;13.65;;;4.95;;
1887;SDS011;944;51.574;6.980;2023-07-09T10:52:44;6.13;;;4.97;;
1887;SDS011;944;51.574;6.980;2023-07-09T10:55:15;9.70;;;5.05;;
1887;SDS011;944;51.574;6.980;2023-07-09T10:57:48;7.47;;;4.57;;
1887;SDS011;944;51.574;6.980;2023-07-09T11:00:25;10.65;;;5.10;;
1887;SDS011;944;51.574;6.980;2023-07-09T11:03:03;10.82;;;4.75;;
1887;SDS011;944;51.574;6.980;2023-07-09T11:05:37;6.35;;;4.82;;
1887;SDS011;944;51.574;6.980;2023-07-09T11:08:06;8.38;;;4.70;;
1887;SDS011;944;51.574;6.980;2023-07-09T11:10:39;8.40;;;5.20;;
1887;SDS011;944;51.574;6.980;2023-07-09T11:13:13;10.82;;;4.85;;
1887;SDS011;944;51.574;6.980;2023-07-09T11:15:46;10.80;;;4.68;;
1887;SDS011;944;51.574;6.980;2023-07-09T11:18:19;8.23;;;4.25;;
1887;SDS011;944;51.574;6.980;2023-07-09T11:20:55;7.25;;;3.97;;
1887;SDS011;944;51.574;6.980;2023-07-09T11:23:26;11.40;;;4.45;;
1887;SDS011;944;51.574;6.980;2023-07-09T11:26:12;11.20;;;4.45;;
1887;SDS011;944;51.574;6.980;2023-07-09T11:28:51;7.70;;;3.90;;
1887;SDS011;944;51.574;6.980;2023-07-09T11:35:08;5.15;;;3.90;;
1887;SDS011;944;51.574;6.980;2023-07-09T11:37:47;7.53;;;3.50;;
1887;SDS011;944;51.574;6.980;2023-07-09T11:43:47;10.20;;;4.25;;
1887;SDS011;944;51.574;6.980;2023-07-09T11:46:16;8.40;;;3.90;;
1887;SDS011;944;51.574;6.980;2023-07-09T11:48:48;12.73;;;4.47;;
1887;SDS011;944;51.574;6.980;2023-07-09T11:51:20;5.20;;;3.60;;
1887;SDS011;944;51.574;6.980;2023-07-09T11:53:52;10.73;;;4.18;;
1887;SDS011;944;51.574;6.980;2023-07-09T11:56:23;6.43;;;3.88;;
1887;SDS011;944;51.574;6.980;2023-07-09T12:02:34;6.78;;;3.90;;
1887;SDS011;944;51.574;6.980;2023-07-09T12:05:00;6.25;;;3.70;;
1887;SDS011;944;51.574;6.980;2023-07-09T12:07:34;8.05;;;3.28;;
1887;SDS011;944;51.574;6.980;2023-07-09T12:10:03;11.57;;;4.00;;
1887;SDS011;944;51.574;6.980;2023-07-09T12:12:44;4.05;;;3.40;;
1887;SDS011;944;51.574;6.980;2023-07-09T12:15:14;4.28;;;3.30;;
1887;SDS011;944;51.574;6.980;2023-07-09T12:17:57;5.30;;;3.55;;
1887;SDS011;944;51.574;6.980;2023-07-09T12:20:30;8.15;;;3.50;;
1887;SDS011;944;51.574;6.980;2023-07-09T12:23:09;5.43;;;3.50;;
1887;SDS011;944;51.574;6.980;2023-07-09T12:25:37;6.65;;;3.80;;
1887;SDS011;944;51.574;6.980;2023-07-09T12:28:14;5.93;;;3.60;;
1887;SDS011;944;51.574;6.980;2023-07-09T12:30:44;9.65;;;3.60;;
1887;SDS011;944;51.574;6.980;2023-07-09T12:33:13;4.82;;;3.47;;
1887;SDS011;944;51.574;6.980;2023-07-09T12:35:43;10.85;;;3.83;;
1887;SDS011;944;51.574;6.980;2023-07-09T12:38:17;5.55;;;3.45;;
1887;SDS011;944;51.574;6.980;2023-07-09T12:40:46;5.60;;;3.63;;
1887;SDS011;944;51.574;6.980;2023-07-09T12:46:55;11.10;;;4.40;;
1887;SDS011;944;51.574;6.980;2023-07-09T12:49:23;10.10;;;4.20;;
1887;SDS011;944;51.574;6.980;2023-07-09T12:51:53;10.05;;;3.78;;
1887;SDS011;944;51.574;6.980;2023-07-09T12:54:23;7.60;;;3.88;;
1887;SDS011;944;51.574;6.980;2023-07-09T12:56:59;4.18;;;3.42;;
1887;SDS011;944;51.574;6.980;2023-07-09T12:59:28;13.45;;;3.70;;
1887;SDS011;944;51.574;6.980;2023-07-09T13:02:15;4.38;;;2.88;;
1887;SDS011;944;51.574;6.980;2023-07-09T13:04:45;8.68;;;3.72;;
1887;SDS011;944;51.574;6.980;2023-07-09T13:07:26;11.35;;;3.90;;
1887;SDS011;944;51.574;6.980;2023-07-09T13:10:05;8.50;;;3.38;;
1887;SDS011;944;51.574;6.980;2023-07-09T13:12:44;5.25;;;3.15;;
1887;SDS011;944;51.574;6.980;2023-07-09T13:15:26;6.18;;;3.95;;
1887;SDS011;944;51.574;6.980;2023-07-09T13:17:56;5.97;;;3.40;;
1887;SDS011;944;51.574;6.980;2023-07-09T13:20:25;5.25;;;3.40;;
1887;SDS011;944;51.574;6.980;2023-07-09T13:22:53;5.28;;;3.30;;
1887;SDS011;944;51.574;6.980;2023-07-09T13:25:21;7.00;;;3.30;;
1887;SDS011;944;51.574;6.980;2023-07-09T13:27:49;6.97;;;3.80;;
1887;SDS011;944;51.574;6.980;2023-07-09T13:30:16;5.85;;;3.60;;
1887;SDS011;944;51.574;6.980;2023-07-09T13:32:44;8.80;;;3.92;;
1887;SDS011;944;51.574;6.980;2023-07-09T13:35:13;4.13;;;3.05;;
1887;SDS011;944;51.574;6.980;2023-07-09T13:37:41;6.28;;;3.88;;
1887;SDS011;944;51.574;6.980;2023-07-09T13:40:09;4.47;;;3.55;;
1887;SDS011;944;51.574;6.980;2023-07-09T13:42:40;9.90;;;3.70;;
1887;SDS011;944;51.574;6.980;2023-07-09T13:45:15;6.78;;;3.70;;
1887;SDS011;944;51.574;6.980;2023-07-09T13:47:45;5.10;;;4.07;;
1887;SDS011;944;51.574;6.980;2023-07-09T13:50:13;7.13;;;4.35;;
1887;SDS011;944;51.574;6.980;2023-07-09T13:52:41;5.65;;;4.07;;
1887;SDS011;944;51.574;6.980;2023-07-09T13:55:11;6.88;;;4.05;;
1887;SDS011;944;51.574;6.980;2023-07-09T13:57:45;4.88;;;3.60;;
1887;SDS011;944;51.574;6.980;2023-07-09T14:00:14;9.30;;;4.18;;
1887;SDS011;944;51.574;6.980;2023-07-09T14:02:42;5.57;;;4.13;;
1887;SDS011;944;51.574;6.980;2023-07-09T14:05:11;22.17;;;13.65;;
1887;SDS011;944;51.574;6.980;2023-07-09T14:07:45;10.70;;;5.40;;
1887;SDS011;944;51.574;6.980;2023-07-09T14:10:13;9.73;;;5.05;;
1887;SDS011;944;51.574;6.980;2023-07-09T14:12:43;9.63;;;4.82;;
1887;SDS011;944;51.574;6.980;2023-07-09T14:15:14;9.80;;;5.47;;
1887;SDS011;944;51.574;6.980;2023-07-09T14:17:44;10.38;;;6.40;;
1887;SDS011;944;51.574;6.980;2023-07-09T14:20:12;30.63;;;21.80;;
1887;SDS011;944;51.574;6.980;2023-07-09T14:22:41;28.88;;;19.52;;
1887;SDS011;944;51.574;6.980;2023-07-09T14:25:14;111.68;;;80.18;;
1887;SDS011;944;51.574;6.980;2023-07-09T14:27:48;69.93;;;54.03;;
1887;SDS011;944;51.574;6.980;2023-07-09T14:30:16;14.07;;;6.20;;
1887;SDS011;944;51.574;6.980;2023-07-09T14:32:46;32.28;;;9.27;;
1887;SDS011;944;51.574;6.980;2023-07-09T14:35:19;20.13;;;6.20;;
1887;SDS011;944;51.574;6.980;2023-07-09T14:37:54;30.27;;;9.37;;
1887;SDS011;944;51.574;6.980;2023-07-09T14:40:24;23.87;;;8.03;;
1887;SDS011;944;51.574;6.980;2023-07-09T14:42:58;16.87;;;6.50;;
1887;SDS011;944;51.574;6.980;2023-07-09T14:45:44;13.93;;;6.10;;
1887;SDS011;944;51.574;6.980;2023-07-09T14:48:58;17.20;;;6.60;;
1887;SDS011;944;51.574;6.980;2023-07-09T15:21:54;12.33;;;6.60;;
1887;SDS011;944;51.574;6.980;2023-07-09T15:24:29;14.40;;;7.40;;
1887;SDS011;944;51.574;6.980;2023-07-09T15:26:58;14.50;;;7.43;;
1887;SDS011;944;51.574;6.980;2023-07-09T15:29:26;20.63;;;8.87;;
1887;SDS011;944;51.574;6.980;2023-07-09T15:31:54;17.57;;;8.60;;
1887;SDS011;944;51.574;6.980;2023-07-09T15:34:23;11.40;;;8.67;;
1887;SDS011;944;51.574;6.980;2023-07-09T15:36:54;15.70;;;9.07;;
1887;SDS011;944;51.574;6.980;2023-07-09T15:39:37;15.37;;;11.10;;
1887;SDS011;944;51.574;6.980;2023-07-09T15:42:53;28.30;;;15.07;;
1887;SDS011;944;51.574;6.980;2023-07-09T16:04:24;20.73;;;14.07;;
1887;SDS011;944;51.574;6.980;2023-07-09T16:06:58;18.50;;;13.23;;
1887;SDS011;944;51.574;6.980;2023-07-09T16:09:25;20.23;;;13.60;;
1887;SDS011;944;51.574;6.980;2023-07-09T16:11:54;21.07;;;14.60;;
1887;SDS011;944;51.574;6.980;2023-07-09T16:15:12;21.03;;;15.90;;
1887;SDS011;944;51.574;6.980;2023-07-09T16:17:48;30.37;;;18.40;;
1887;SDS011;944;51.574;6.980;2023-07-09T16:20:21;23.30;;;17.93;;
1887;SDS011;944;51.574;6.980;2023-07-09T16:22:59;24.53;;;16.70;;
1887;SDS011;944;51.574;6.980;2023-07-09T16:25:48;26.67;;;18.60;;
1887;SDS011;944;51.574;6.980;2023-07-09T16:28:18;29.27;;;20.07;;
1887;SDS011;944;51.574;6.980;2023-07-09T16:30:46;28.20;;;21.33;;
1887;SDS011;944;51.574;6.980;2023-07-09T16:33:15;31.10;;;23.63;;
1887;SDS011;944;51.574;6.980;2023-07-09T16:35:44;39.40;;;24.00;;
1887;SDS011;944;51.574;6.980;2023-07-09T16:38:14;32.30;;;22.70;;
1887;SDS011;944;51.574;6.980;2023-07-09T16:40:45;30.03;;;21.87;;
1887;SDS011;944;51.574;6.980;2023-07-09T16:43:13;30.00;;;20.77;;
1887;SDS011;944;51.574;6.980;2023-07-09T16:45:46;44.83;;;23.10;;
1887;SDS011;944;51.574;6.980;2023-07-09T16:48:14;39.70;;;24.60;;
1887;SDS011;944;51.574;6.980;2023-07-09T16:50:46;34.63;;;25.67;;
1887;SDS011;944;51.574;6.980;2023-07-09T16:53:17;31.70;;;23.33;;
1887;SDS011;944;51.574;6.980;2023-07-09T16:55:46;32.00;;;22.33;;
1887;SDS011;944;51.574;6.980;2023-07-09T16:58:17;33.63;;;25.30;;
1887;SDS011;944;51.574;6.980;2023-07-09T17:00:52;38.10;;;25.50;;
1887;SDS011;944;51.574;6.980;2023-07-09T17:03:21;32.07;;;23.63;;
1887;SDS011;944;51.574;6.980;2023-07-09T17:05:49;28.43;;;20.90;;